Time;durP1;ratioP1;P1;durP2;ratioP2;P2;SDS_P1;SDS_P2;PMS_P1;PMS_P2;Temp;Humidity;BMP_temperature;BMP_pressure;BME280_temperature;BME280_humidity;BME280_pressure;Samples;Min_cycle;Max_cycle;Signal;HPM_P1;HPM_P2
2021/12/23 00:00:47;;;;;;;31.65;15.35;;;;;;;-2.74;92.23;101617.13;4976698;28;20030;-75
2021/12/23 00:03:12;;;;;;;33.88;14.65;;;;;;;-2.71;92.20;101624.22;4989381;28;20022;-73
2021/12/23 00:05:37;;;;;;;32.60;15.18;;;;;;;-2.73;92.24;101624.22;4986148;28;20034;-76
2021/12/23 00:08:03;;;;;;;27.20;13.77;;;;;;;-2.72;91.82;101619.78;4977863;28;20043;-76
2021/12/23 00:10:28;;;;;;;35.65;14.68;;;;;;;-2.73;91.59;101600.25;4979829;28;20023;-73
2021/12/23 00:12:54;;;;;;;31.45;15.52;;;;;;;-2.75;91.98;101582.50;4990551;28;20113;-72
2021/12/23 00:18:01;;;;;;;30.20;14.57;;;;;;;-2.80;91.86;101579.88;4986869;28;20034;-72
2021/12/23 00:25:45;;;;;;;31.08;14.65;;;;;;;-2.84;91.55;101580.81;4983267;28;20080;-76
2021/12/23 00:28:10;;;;;;;36.65;16.02;;;;;;;-2.84;91.52;101567.50;4988940;28;20061;-76
2021/12/23 00:30:35;;;;;;;32.72;14.68;;;;;;;-2.86;91.75;101559.50;4977392;28;20457;-72
2021/12/23 00:33:01;;;;;;;30.33;14.90;;;;;;;-2.88;91.82;101544.44;4989521;28;20097;-74
2021/12/23 00:35:26;;;;;;;36.60;15.05;;;;;;;-2.86;91.99;101543.53;4988587;28;20028;-74
2021/12/23 00:37:58;;;;;;;34.35;14.95;;;;;;;-2.83;92.01;101539.97;4987285;28;20061;-73
2021/12/23 00:40:23;;;;;;;34.15;14.98;;;;;;;-2.81;92.07;101543.50;4979779;28;20018;-76
2021/12/23 00:42:48;;;;;;;30.95;15.43;;;;;;;-2.79;91.71;101535.53;4979613;28;20089;-76
2021/12/23 00:45:14;;;;;;;36.35;16.00;;;;;;;-2.78;91.77;101543.50;4982373;28;20436;-76
2021/12/23 00:47:39;;;;;;;27.25;13.90;;;;;;;-2.78;91.80;101540.81;4989578;28;20315;-73
2021/12/23 00:50:05;;;;;;;36.03;14.95;;;;;;;-2.75;91.78;101537.25;4985337;28;20038;-76
2021/12/23 00:52:41;;;;;;;34.45;15.23;;;;;;;-2.75;91.62;101537.25;4988861;28;20065;-77
2021/12/23 00:55:09;;;;;;;34.35;15.95;;;;;;;-2.73;91.98;101530.16;4978898;28;20430;-76
2021/12/23 00:57:39;;;;;;;30.02;15.23;;;;;;;-2.73;91.53;101528.38;4988993;28;20033;-76
2021/12/23 01:00:08;;;;;;;31.75;15.27;;;;;;;-2.73;91.65;101531.03;4981226;28;20056;-75
2021/12/23 01:02:33;;;;;;;35.58;14.48;;;;;;;-2.73;91.64;101532.81;4984208;28;20134;-72
2021/12/23 01:04:59;;;;;;;33.05;15.02;;;;;;;-2.73;91.30;101543.47;4984456;28;20113;-74
2021/12/23 01:07:25;;;;;;;29.08;14.77;;;;;;;-2.73;91.32;101556.78;4986159;28;20054;-77
2021/12/23 01:09:51;;;;;;;34.83;16.42;;;;;;;-2.73;91.17;101548.78;4987548;28;20125;-73
2021/12/23 01:12:20;;;;;;;27.45;13.90;;;;;;;-2.71;91.45;101552.31;4984483;28;20370;-76
2021/12/23 01:15:38;;;;;;;32.35;16.23;;;;;;;-2.68;90.69;101544.31;4986696;28;20034;-73
2021/12/23 01:20:26;;;;;;;32.95;15.30;;;;;;;-2.66;91.43;101524.78;4970941;28;20031;-76
2021/12/23 01:22:53;;;;;;;38.42;15.48;;;;;;;-2.65;91.58;101528.31;4985207;28;20478;-75
2021/12/23 01:25:18;;;;;;;34.95;16.15;;;;;;;-2.67;91.77;101520.31;4988723;28;20043;-72
2021/12/23 01:27:44;;;;;;;31.75;15.38;;;;;;;-2.66;91.65;101516.78;4987900;28;20069;-73
2021/12/23 01:30:09;;;;;;;39.67;17.88;;;;;;;-2.65;91.78;101517.66;4976599;28;20378;-75
2021/12/23 01:32:35;;;;;;;35.22;15.73;;;;;;;-2.64;91.60;101514.09;4987652;28;20041;-73
2021/12/23 01:35:00;;;;;;;28.33;14.70;;;;;;;-2.64;91.51;101506.13;4985803;28;20406;-73
2021/12/23 01:37:25;;;;;;;33.03;14.65;;;;;;;-2.65;91.50;101499.91;4989525;28;20030;-76
2021/12/23 01:39:50;;;;;;;35.00;16.20;;;;;;;-2.62;91.50;101493.66;4976198;28;20027;-73
2021/12/23 01:42:16;;;;;;;34.58;16.35;;;;;;;-2.62;91.79;101488.34;4980325;28;20117;-76
2021/12/23 01:44:41;;;;;;;29.90;14.77;;;;;;;-2.60;91.64;101497.22;4981496;28;20034;-76
2021/12/23 01:47:06;;;;;;;33.95;15.10;;;;;;;-2.61;91.48;101493.66;4988125;28;20382;-73
2021/12/23 01:49:32;;;;;;;35.85;16.70;;;;;;;-2.58;91.64;101488.28;4983079;28;20125;-72
2021/12/23 01:51:57;;;;;;;32.03;15.38;;;;;;;-2.58;91.55;101485.63;4987782;28;20021;-75
2021/12/23 01:54:22;;;;;;;29.60;15.45;;;;;;;-2.55;91.47;101490.06;4986372;28;20029;-74
2021/12/23 01:56:49;;;;;;;30.95;14.27;;;;;;;-2.54;91.08;101478.50;4987309;28;20030;-73
2021/12/23 01:59:15;;;;;;;31.15;15.38;;;;;;;-2.54;91.40;101470.53;4983605;28;20072;-76
2021/12/23 02:01:41;;;;;;;29.08;15.35;;;;;;;-2.54;91.39;101465.19;4986703;28;20050;-74
2021/12/23 02:04:07;;;;;;;31.05;14.43;;;;;;;-2.53;91.45;101460.75;4988046;28;20033;-73
2021/12/23 02:06:32;;;;;;;35.38;17.08;;;;;;;-2.55;91.29;101465.22;4980327;28;20491;-73
2021/12/23 02:08:57;;;;;;;34.67;14.98;;;;;;;-2.55;91.40;101462.56;4987812;28;20030;-75
2021/12/23 02:11:23;;;;;;;32.50;16.25;;;;;;;-2.59;91.50;101451.03;4987530;28;20462;-76
2021/12/23 02:13:48;;;;;;;31.98;15.82;;;;;;;-2.54;90.94;101454.53;4985601;28;20093;-76
2021/12/23 02:16:14;;;;;;;30.08;15.45;;;;;;;-2.53;90.99;101452.75;4977752;28;20053;-74
2021/12/23 02:18:39;;;;;;;32.83;15.52;;;;;;;-2.56;90.84;101456.34;4983919;28;20069;-73
2021/12/23 02:21:05;;;;;;;31.40;14.85;;;;;;;-2.57;90.79;101454.56;4987591;28;20429;-73
2021/12/23 02:23:31;;;;;;;30.38;14.07;;;;;;;-2.59;90.77;101443.94;4983756;28;20042;-76
2021/12/23 02:25:58;;;;;;;31.50;14.00;;;;;;;-2.60;90.90;101436.84;4978742;28;20471;-75
2021/12/23 02:28:23;;;;;;;26.65;13.23;;;;;;;-2.62;90.45;101443.94;4975429;28;20158;-76
2021/12/23 02:30:51;;;;;;;29.65;14.32;;;;;;;-2.64;90.92;101456.41;4973863;28;20558;-77
2021/12/23 02:33:17;;;;;;;28.58;14.38;;;;;;;-2.66;90.84;101454.63;4986541;28;20201;-73
2021/12/23 02:35:43;;;;;;;36.03;15.35;;;;;;;-2.69;91.23;101452.00;4977160;28;20033;-76
2021/12/23 02:38:08;;;;;;;31.92;13.95;;;;;;;-2.73;90.74;101450.28;4986539;28;20395;-77
2021/12/23 02:40:37;;;;;;;30.13;14.50;;;;;;;-2.75;90.84;101458.28;4982499;28;20022;-73
2021/12/23 02:43:07;;;;;;;30.95;12.88;;;;;;;-2.79;90.94;101460.97;4980724;28;20326;-75
2021/12/23 02:45:33;;;;;;;30.83;12.40;;;;;;;-2.83;90.99;101465.44;4978074;28;20085;-73
2021/12/23 02:47:58;;;;;;;28.60;13.75;;;;;;;-2.86;91.00;101458.34;4986720;28;20031;-73
2021/12/23 02:50:23;;;;;;;29.95;14.43;;;;;;;-2.88;91.11;101456.59;4979889;28;20113;-75
2021/12/23 02:52:49;;;;;;;29.80;13.95;;;;;;;-2.94;91.13;101441.56;4987123;28;20311;-77
2021/12/23 02:55:18;;;;;;;28.33;12.98;;;;;;;-3.00;91.17;101444.25;4983405;28;20023;-75
2021/12/23 02:57:43;;;;;;;25.00;14.00;;;;;;;-3.04;91.17;101426.53;4985761;28;20470;-77
2021/12/23 03:00:09;;;;;;;26.83;14.27;;;;;;;-3.06;91.05;101415.03;4983679;28;20029;-72
2021/12/23 03:02:37;;;;;;;28.65;14.90;;;;;;;-3.10;90.82;101416.81;4987300;28;20038;-72
2021/12/23 03:05:03;;;;;;;31.50;14.98;;;;;;;-3.14;90.61;101412.41;4987076;28;20448;-72
2021/12/23 03:07:28;;;;;;;26.23;13.35;;;;;;;-3.16;90.76;101411.56;4978312;28;20142;-76
2021/12/23 03:09:53;;;;;;;29.05;14.20;;;;;;;-3.18;91.01;101407.13;4987492;28;20101;-72
2021/12/23 03:12:19;;;;;;;32.65;15.20;;;;;;;-3.19;90.96;101406.25;4984794;28;20045;-77
2021/12/23 03:14:44;;;;;;;31.08;14.57;;;;;;;-3.17;90.55;101408.88;4982533;28;20090;-73
2021/12/23 03:17:09;;;;;;;28.92;14.18;;;;;;;-3.22;90.62;101418.69;4981882;28;20030;-73
2021/12/23 03:19:34;;;;;;;32.40;14.48;;;;;;;-3.26;90.82;101407.19;4986313;28;20497;-73
2021/12/23 03:22:00;;;;;;;33.10;14.32;;;;;;;-3.27;90.92;101405.41;4974100;28;20022;-77
2021/12/23 03:24:25;;;;;;;27.15;13.15;;;;;;;-3.26;90.80;101406.31;4987494;28;20438;-77
2021/12/23 03:26:51;;;;;;;33.03;14.82;;;;;;;-3.27;90.96;101383.25;4980625;28;20033;-76
2021/12/23 03:29:16;;;;;;;29.08;12.82;;;;;;;-3.35;91.01;101365.56;4975156;28;21626;-76
2021/12/23 03:31:41;;;;;;;30.27;13.77;;;;;;;-3.37;91.08;101367.34;4983763;28;20030;-76
2021/12/23 03:34:07;;;;;;;31.40;14.82;;;;;;;-3.37;91.13;101364.69;4989082;28;20022;-72
2021/12/23 03:36:32;;;;;;;30.98;13.63;;;;;;;-3.38;91.19;101370.91;4986128;28;20030;-75
2021/12/23 03:38:58;;;;;;;30.42;14.52;;;;;;;-3.39;91.09;101363.84;4979517;28;20052;-76
2021/12/23 03:41:23;;;;;;;36.33;15.63;;;;;;;-3.40;91.54;101370.06;4980663;28;20058;-73
2021/12/23 03:43:48;;;;;;;27.52;13.45;;;;;;;-3.41;91.61;101370.91;4976804;28;20122;-73
2021/12/23 03:46:13;;;;;;;35.83;15.05;;;;;;;-3.39;91.67;101355.84;4971149;28;20030;-73
2021/12/23 03:48:39;;;;;;;34.83;15.10;;;;;;;-3.36;91.39;101349.59;4986365;28;20121;-78
2021/12/23 03:51:04;;;;;;;29.85;14.98;;;;;;;-3.39;91.41;101334.56;4981558;28;20026;-73
2021/12/23 03:53:30;;;;;;;40.58;16.90;;;;;;;-3.40;91.56;101323.94;4988547;28;20032;-73
2021/12/23 03:55:55;;;;;;;37.70;15.32;;;;;;;-3.41;91.80;101317.72;4990035;28;20106;-78
2021/12/23 03:58:21;;;;;;;30.75;15.52;;;;;;;-3.39;91.80;101300.00;4984811;28;20117;-72
2021/12/23 04:00:47;;;;;;;35.03;16.48;;;;;;;-3.33;92.14;101301.72;4988053;28;20022;-76
2021/12/23 04:03:13;;;;;;;40.72;16.92;;;;;;;-3.26;91.96;101307.88;4989166;28;20037;-76
2021/12/23 04:05:38;;;;;;;38.30;16.67;;;;;;;-3.20;92.12;101315.81;4974013;28;20482;-74
2021/12/23 04:08:04;;;;;;;34.40;17.08;;;;;;;-3.15;92.04;101321.97;4987703;28;20035;-77
2021/12/23 04:10:30;;;;;;;38.08;17.83;;;;;;;-3.13;92.20;101314.84;4974151;28;20107;-71
2021/12/23 04:12:55;;;;;;;36.13;17.17;;;;;;;-3.09;92.06;101312.13;4986541;28;20113;-77
2021/12/23 04:15:21;;;;;;;36.30;18.60;;;;;;;-3.05;92.04;101299.69;4982164;28;20041;-76
2021/12/23 04:17:47;;;;;;;42.55;18.50;;;;;;;-3.03;92.31;101287.28;4989783;28;20497;-76
2021/12/23 04:20:19;;;;;;;39.33;18.17;;;;;;;-3.01;92.15;101298.78;4989509;28;20062;-77
2021/12/23 04:22:46;;;;;;;36.80;17.30;;;;;;;-2.93;92.03;101307.56;4988826;28;20080;-73
2021/12/23 04:25:13;;;;;;;43.05;18.65;;;;;;;-2.87;92.08;101304.84;4983419;28;20402;-73
2021/12/23 04:27:39;;;;;;;37.25;17.38;;;;;;;-2.86;91.99;101309.25;4984714;28;20501;-77
2021/12/23 04:30:06;;;;;;;38.55;17.05;;;;;;;-2.83;91.82;101303.91;4972819;28;20031;-76
2021/12/23 04:32:31;;;;;;;37.15;17.63;;;;;;;-2.81;91.58;101301.22;4985983;28;20034;-73
2021/12/23 04:34:57;;;;;;;45.30;18.00;;;;;;;-2.84;91.95;101287.97;4984856;28;20022;-77
2021/12/23 04:37:22;;;;;;;40.75;18.30;;;;;;;-2.83;91.76;101279.06;4973590;28;20034;-73
2021/12/23 04:39:47;;;;;;;41.05;17.77;;;;;;;-2.84;91.39;101283.53;4978328;28;20029;-77
2021/12/23 04:42:13;;;;;;;41.33;18.42;;;;;;;-2.83;91.38;101279.97;4972932;28;20482;-73
2021/12/23 04:44:38;;;;;;;41.55;19.50;;;;;;;-2.84;91.80;101272.88;4981866;28;20057;-72
2021/12/23 04:47:04;;;;;;;41.05;18.27;;;;;;;-2.82;91.53;101265.75;4988613;28;20034;-72
2021/12/23 04:49:29;;;;;;;39.40;17.52;;;;;;;-2.80;91.34;101267.50;4988150;28;20410;-76
2021/12/23 04:51:54;;;;;;;48.33;20.05;;;;;;;-2.78;91.42;101271.03;4983016;28;20034;-76
2021/12/23 04:54:19;;;;;;;40.50;18.38;;;;;;;-2.76;91.61;101267.44;4986505;28;20080;-73
2021/12/23 04:56:45;;;;;;;43.33;18.35;;;;;;;-2.76;91.53;101256.78;4985800;28;20053;-77
2021/12/23 04:59:10;;;;;;;40.25;18.73;;;;;;;-2.72;91.18;101250.53;4970436;28;20031;-77
2021/12/23 05:01:35;;;;;;;41.35;18.30;;;;;;;-2.70;91.35;101248.75;4987604;28;20034;-73
2021/12/23 05:04:01;;;;;;;48.47;18.08;;;;;;;-2.68;91.17;101241.63;4989190;28;20036;-73
2021/12/23 05:06:26;;;;;;;44.60;19.60;;;;;;;-2.65;91.51;101238.94;4981658;28;20057;-77
2021/12/23 05:08:52;;;;;;;49.28;20.05;;;;;;;-2.64;91.32;101242.47;4985656;28;20381;-76
2021/12/23 05:11:18;;;;;;;52.63;20.38;;;;;;;-2.61;91.14;101238.00;4987092;28;20026;-77
2021/12/23 05:13:50;;;;;;;43.63;20.90;;;;;;;-2.59;91.30;101244.19;4988737;28;20078;-77
2021/12/23 05:16:16;;;;;;;45.05;21.05;;;;;;;-2.55;91.50;101233.50;4971719;28;20041;-76
2021/12/23 05:18:41;;;;;;;43.60;19.95;;;;;;;-2.53;91.12;101237.00;4982446;28;20045;-73
2021/12/23 05:21:07;;;;;;;45.75;20.45;;;;;;;-2.50;91.69;101235.19;4976876;28;20026;-72
2021/12/23 05:23:33;;;;;;;47.17;20.08;;;;;;;-2.49;91.06;101236.94;4987106;28;20561;-76
2021/12/23 05:25:58;;;;;;;45.67;20.50;;;;;;;-2.46;91.40;101241.38;4987476;28;20033;-76
2021/12/23 05:28:23;;;;;;;48.20;20.52;;;;;;;-2.46;91.35;101226.28;4986708;28;20074;-75
2021/12/23 05:30:49;;;;;;;50.13;21.77;;;;;;;-2.45;91.55;101225.38;4979160;28;20044;-73
2021/12/23 05:33:14;;;;;;;49.03;20.73;;;;;;;-2.43;91.22;101228.88;4977139;28;20120;-74
2021/12/23 05:35:39;;;;;;;46.03;18.83;;;;;;;-2.40;91.42;101233.28;4986226;28;20481;-73
2021/12/23 05:38:04;;;;;;;41.45;20.20;;;;;;;-2.39;91.55;101227.06;4981473;28;20053;-77
2021/12/23 05:40:30;;;;;;;44.03;19.45;;;;;;;-2.37;91.21;101223.50;4983758;28;20486;-76
2021/12/23 05:42:57;;;;;;;44.78;20.92;;;;;;;-2.37;91.46;101212.84;4981853;28;20038;-74
2021/12/23 05:45:23;;;;;;;48.60;22.27;;;;;;;-2.36;91.32;101211.91;4983510;28;20483;-72
2021/12/23 05:47:48;;;;;;;49.60;22.55;;;;;;;-2.33;91.06;101213.69;4984308;28;20069;-76
2021/12/23 05:50:15;;;;;;;49.40;22.13;;;;;;;-2.31;90.56;101206.53;4983169;28;20026;-73
2021/12/23 05:52:41;;;;;;;51.63;22.73;;;;;;;-2.29;90.77;101207.38;4976233;28;20092;-77
2021/12/23 05:55:08;;;;;;;53.30;22.65;;;;;;;-2.26;90.76;101211.78;4983744;28;20053;-76
2021/12/23 05:57:34;;;;;;;43.38;21.05;;;;;;;-2.26;90.96;101207.34;4984780;28;20053;-74
2021/12/23 06:00:00;;;;;;;45.70;18.83;;;;;;;-2.25;91.33;101203.78;4984453;28;20080;-76
2021/12/23 06:02:26;;;;;;;51.13;21.27;;;;;;;-2.23;90.73;101203.78;4985459;28;20046;-74
2021/12/23 06:04:51;;;;;;;47.53;21.10;;;;;;;-2.23;91.47;101215.31;4983068;28;20510;-73
2021/12/23 06:07:17;;;;;;;53.50;23.10;;;;;;;-2.21;91.50;101218.81;4984281;28;20050;-75
2021/12/23 06:09:42;;;;;;;51.83;23.50;;;;;;;-2.21;90.99;101221.47;4980705;28;20018;-73
2021/12/23 06:12:08;;;;;;;43.03;20.55;;;;;;;-2.23;91.37;101211.75;4983808;28;20669;-73
2021/12/23 06:14:34;;;;;;;49.85;21.05;;;;;;;-2.25;91.49;101217.09;4977403;28;20049;-73
2021/12/23 06:17:01;;;;;;;42.50;20.20;;;;;;;-2.25;91.13;101217.09;4979225;28;20121;-77
2021/12/23 06:19:26;;;;;;;53.70;23.52;;;;;;;-2.23;90.67;101198.44;4967187;28;20034;-75
2021/12/23 06:21:52;;;;;;;54.78;24.05;;;;;;;-2.23;91.03;101204.66;4976967;28;20026;-76
2021/12/23 06:24:17;;;;;;;48.53;22.08;;;;;;;-2.24;90.88;101189.53;4983128;28;20551;-73
2021/12/23 06:26:42;;;;;;;52.50;22.10;;;;;;;-2.24;91.13;101196.66;4986304;28;20455;-73
2021/12/23 06:29:08;;;;;;;49.35;21.00;;;;;;;-2.28;90.64;101187.84;4984137;28;20030;-73
2021/12/23 06:31:33;;;;;;;50.33;22.02;;;;;;;-2.28;90.90;101184.31;4979475;28;20031;-73
2021/12/23 06:33:58;;;;;;;53.17;23.58;;;;;;;-2.28;90.90;101178.97;4982808;28;20126;-75
2021/12/23 06:36:24;;;;;;;51.65;21.23;;;;;;;-2.29;90.89;101175.41;4977412;28;20022;-76
2021/12/23 06:38:49;;;;;;;45.33;21.38;;;;;;;-2.32;90.93;101162.16;4978856;28;20039;-73
2021/12/23 06:41:16;;;;;;;50.00;21.60;;;;;;;-2.33;90.96;101155.94;4981354;28;20053;-73
2021/12/23 06:43:42;;;;;;;48.80;20.60;;;;;;;-2.31;91.00;101158.56;4986798;28;20490;-73
2021/12/23 06:46:08;;;;;;;54.70;21.70;;;;;;;-2.32;91.06;101157.69;4973041;28;20080;-76
2021/12/23 06:48:33;;;;;;;44.97;19.15;;;;;;;-2.33;91.40;101147.06;4982278;28;20055;-76
2021/12/23 06:51:00;;;;;;;45.40;20.00;;;;;;;-2.29;91.19;101153.22;4983527;28;20092;-76
2021/12/23 06:53:26;;;;;;;52.83;23.05;;;;;;;-2.28;91.04;101150.53;4985538;28;20030;-76
2021/12/23 06:55:52;;;;;;;47.97;20.63;;;;;;;-2.26;91.03;101154.06;4970363;28;20043;-75
2021/12/23 06:58:20;;;;;;;52.88;21.05;;;;;;;-2.22;91.43;101150.44;4975686;28;20038;-76
2021/12/23 07:00:46;;;;;;;51.63;20.88;;;;;;;-2.18;90.83;101161.94;4976729;28;20022;-74
2021/12/23 07:03:12;;;;;;;48.33;20.10;;;;;;;-2.15;90.59;101162.75;4985675;28;20046;-73
2021/12/23 07:05:38;;;;;;;47.25;20.65;;;;;;;-2.13;90.87;101160.09;4981465;28;20037;-76
2021/12/23 07:08:09;;;;;;;47.47;18.58;;;;;;;-2.10;91.00;101162.69;4987270;28;20424;-73
2021/12/23 07:10:35;;;;;;;47.35;20.88;;;;;;;-2.08;91.36;101164.44;4984169;28;20045;-73
2021/12/23 07:13:01;;;;;;;46.30;20.05;;;;;;;-2.05;91.23;101163.53;4978686;28;20562;-73
2021/12/23 07:15:27;;;;;;;49.42;21.38;;;;;;;-2.05;90.89;101155.53;4983725;28;20137;-73
2021/12/23 07:17:54;;;;;;;48.08;19.83;;;;;;;-2.01;91.26;101162.53;4988772;28;20022;-73
2021/12/23 07:20:21;;;;;;;44.92;18.55;;;;;;;-2.00;90.74;101155.47;4988368;28;20045;-76
2021/12/23 07:22:47;;;;;;;42.97;19.88;;;;;;;-1.94;90.88;101150.91;4982350;28;20638;-73
2021/12/23 07:25:13;;;;;;;44.58;19.83;;;;;;;-1.93;91.47;101141.09;4990192;28;20033;-76
2021/12/23 07:27:39;;;;;;;55.55;19.13;;;;;;;-1.91;91.16;101155.28;4989385;28;20018;-73
2021/12/23 07:30:05;;;;;;;48.50;20.23;;;;;;;-1.88;91.08;101163.22;4982047;28;20045;-74
2021/12/23 07:32:31;;;;;;;50.40;19.17;;;;;;;-1.87;91.34;101151.66;4981945;28;20102;-73
2021/12/23 07:34:56;;;;;;;49.20;20.02;;;;;;;-1.84;90.70;101162.28;4987441;28;20058;-74
2021/12/23 07:37:21;;;;;;;52.95;19.73;;;;;;;-1.81;90.30;101170.25;4987159;28;20109;-73
2021/12/23 07:39:47;;;;;;;46.90;20.90;;;;;;;-1.81;90.94;101163.13;4982992;28;20356;-72
2021/12/23 07:42:15;;;;;;;41.03;18.17;;;;;;;-1.78;90.75;101164.84;4982370;28;20394;-74
2021/12/23 07:44:42;;;;;;;46.33;18.88;;;;;;;-1.78;90.72;101161.28;4979176;28;20501;-74
2021/12/23 07:47:07;;;;;;;44.00;18.92;;;;;;;-1.74;90.91;101160.34;4989327;28;20367;-74
2021/12/23 07:49:32;;;;;;;45.42;19.13;;;;;;;-1.72;90.90;101171.88;4983987;28;20031;-73
2021/12/23 07:51:58;;;;;;;47.85;20.35;;;;;;;-1.71;91.07;101168.31;4990293;28;20057;-74
2021/12/23 07:54:23;;;;;;;51.33;19.10;;;;;;;-1.69;90.93;101167.34;4986915;28;20034;-77
2021/12/23 07:56:48;;;;;;;51.03;19.17;;;;;;;-1.66;90.55;101155.78;4989965;28;20387;-73
2021/12/23 07:59:14;;;;;;;43.85;17.85;;;;;;;-1.65;90.93;101158.41;4987781;28;20034;-72
2021/12/23 08:01:40;;;;;;;46.85;19.80;;;;;;;-1.62;91.07;101147.69;4982055;28;20023;-76
2021/12/23 08:04:05;;;;;;;50.58;19.33;;;;;;;-1.61;90.80;101151.22;4990705;28;20030;-76
2021/12/23 08:06:31;;;;;;;51.83;19.15;;;;;;;-1.59;91.06;101144.06;4984335;28;20409;-76
2021/12/23 08:08:56;;;;;;;45.85;19.40;;;;;;;-1.56;90.71;101144.03;4983146;28;20030;-76
2021/12/23 08:11:22;;;;;;;45.20;19.27;;;;;;;-1.56;91.11;101142.22;4979201;28;20026;-73
2021/12/23 08:13:47;;;;;;;44.15;17.55;;;;;;;-1.56;90.63;101133.34;4982211;28;20031;-75
2021/12/23 08:16:12;;;;;;;48.55;18.92;;;;;;;-1.50;90.35;101153.69;4973807;28;20048;-73
2021/12/23 08:18:38;;;;;;;47.53;19.23;;;;;;;-1.48;90.59;101149.22;4975259;28;20672;-73
2021/12/23 08:21:03;;;;;;;43.28;18.10;;;;;;;-1.47;90.68;101150.97;4984518;28;20022;-76
2021/12/23 08:23:29;;;;;;;50.08;19.27;;;;;;;-1.44;90.57;101146.47;4987587;28;20054;-73
2021/12/23 08:25:55;;;;;;;41.00;18.70;;;;;;;-1.42;90.45;101139.31;4977659;28;20030;-74
2021/12/23 08:28:21;;;;;;;49.28;18.60;;;;;;;-1.42;90.27;101125.97;4975314;28;20031;-73
2021/12/23 08:30:47;;;;;;;47.80;19.25;;;;;;;-1.38;90.85;101126.81;4981151;28;20043;-76
2021/12/23 08:33:12;;;;;;;48.50;19.73;;;;;;;-1.36;90.65;101119.63;4985230;28;20026;-76
2021/12/23 08:35:38;;;;;;;46.38;18.95;;;;;;;-1.35;90.38;101118.75;4989384;28;20023;-74
2021/12/23 08:38:05;;;;;;;46.58;18.30;;;;;;;-1.32;90.31;101122.22;4982037;28;20470;-73
2021/12/23 08:40:31;;;;;;;46.67;17.63;;;;;;;-1.30;89.77;101115.06;4983122;28;20027;-75
2021/12/23 08:42:57;;;;;;;53.08;20.00;;;;;;;-1.24;90.26;101115.88;4982659;28;20125;-73
2021/12/23 08:45:25;;;;;;;46.50;18.52;;;;;;;-1.20;89.83;101112.22;4977270;28;20080;-75
2021/12/23 08:47:51;;;;;;;38.58;17.83;;;;;;;-1.17;90.42;101101.47;4989578;28;20450;-74
2021/12/23 08:50:18;;;;;;;45.95;19.85;;;;;;;-1.17;90.39;101097.00;4986357;28;20121;-73
2021/12/23 08:52:44;;;;;;;50.90;19.20;;;;;;;-1.14;90.65;101098.75;4986774;28;20439;-72
2021/12/23 08:55:10;;;;;;;50.55;18.27;;;;;;;-1.11;90.76;101082.69;4983931;28;20025;-74
2021/12/23 08:57:36;;;;;;;49.30;19.15;;;;;;;-1.08;90.58;101083.47;4986128;28;20511;-76
2021/12/23 09:00:05;;;;;;;53.30;20.10;;;;;;;-1.07;90.75;101087.94;4980804;28;20105;-77
2021/12/23 09:02:30;;;;;;;44.40;20.15;;;;;;;-1.02;90.55;101089.63;4981601;28;20031;-77
2021/12/23 09:04:55;;;;;;;43.80;18.60;;;;;;;-1.01;89.97;101089.59;4982750;28;20031;-73
2021/12/23 09:07:21;;;;;;;44.60;18.63;;;;;;;-0.95;89.99;101089.44;4979028;28;20383;-77
2021/12/23 09:09:50;;;;;;;46.15;18.23;;;;;;;-0.88;90.25;101087.53;4979158;28;20482;-73
2021/12/23 09:12:16;;;;;;;44.72;17.60;;;;;;;-0.85;90.07;101072.31;4988672;28;20077;-74
2021/12/23 09:14:41;;;;;;;42.65;18.73;;;;;;;-0.73;89.86;101080.97;4984135;28;20027;-74
2021/12/23 09:17:06;;;;;;;47.40;19.40;;;;;;;-0.66;90.21;101088.81;4985574;28;20022;-73
2021/12/23 09:19:31;;;;;;;47.13;19.65;;;;;;;-0.60;90.19;101078.00;4987199;28;20399;-77
2021/12/23 09:21:57;;;;;;;50.30;18.38;;;;;;;-0.53;89.95;101078.72;4986982;28;20514;-74
2021/12/23 09:24:23;;;;;;;47.60;18.42;;;;;;;-0.47;89.88;101070.56;4981558;28;20037;-75
2021/12/23 09:26:55;;;;;;;41.00;17.17;;;;;;;-0.46;88.58;101084.81;4981475;28;20034;-75
2021/12/23 09:34:49;;;;;;;41.72;17.23;;;;;;;-0.35;88.89;101080.09;4981897;28;20553;-76
2021/12/23 09:37:15;;;;;;;45.60;19.25;;;;;;;-0.31;89.41;101076.44;4977514;28;20039;-75
2021/12/23 09:39:41;;;;;;;39.50;17.08;;;;;;;-0.28;88.54;101074.56;4971639;28;20031;-74
2021/12/23 09:42:07;;;;;;;42.35;17.55;;;;;;;-0.23;88.74;101068.19;4975476;28;20041;-74
2021/12/23 09:44:32;;;;;;;45.17;17.10;;;;;;;-0.20;88.68;101063.66;4985285;28;20479;-72
2021/12/23 09:47:02;;;;;;;46.13;19.48;;;;;;;-0.16;89.02;101060.00;4984037;28;20394;-72
2021/12/23 09:49:29;;;;;;;44.00;18.10;;;;;;;-0.11;88.99;101059.91;4986302;28;20177;-74
2021/12/23 09:51:55;;;;;;;40.15;17.98;;;;;;;-0.07;89.21;101053.56;4985444;28;20033;-76
2021/12/23 09:54:24;;;;;;;45.55;17.88;;;;;;;-0.05;88.35;101038.34;4987229;28;20026;-76
2021/12/23 09:56:49;;;;;;;47.40;19.58;;;;;;;0.00;88.72;101047.16;4980129;28;20125;-75
2021/12/23 09:59:15;;;;;;;42.47;17.70;;;;;;;0.04;88.59;101040.78;4980226;28;20050;-74
2021/12/23 10:01:41;;;;;;;46.80;18.52;;;;;;;0.06;88.32;101035.41;4980756;28;20375;-75
2021/12/23 10:04:06;;;;;;;48.92;18.33;;;;;;;0.08;87.96;101031.75;4983864;28;20054;-76
2021/12/23 10:06:32;;;;;;;45.22;18.58;;;;;;;0.12;88.35;101037.91;4979074;28;20050;-75
2021/12/23 10:08:58;;;;;;;44.55;19.20;;;;;;;0.13;88.39;101035.19;4978189;28;20139;-75
2021/12/23 10:12:11;;;;;;;36.03;15.60;;;;;;;0.18;88.55;101037.75;4976613;28;20033;-75
2021/12/23 10:30:04;;;;;;;53.08;19.38;;;;;;;0.45;88.69;101009.34;4972747;28;20778;-74
2021/12/23 10:31:20;;;;;;;45.17;17.60;;;;;;;0.49;88.06;100997.66;4979598;28;20042;-76
2021/12/23 10:37:04;;;;;;;48.97;18.10;;;;;;;0.51;88.26;100979.72;4978251;28;20050;-75
2021/12/23 10:39:24;;;;;;;43.22;18.00;;;;;;;0.62;87.74;100956.22;4976570;28;20085;-75
2021/12/23 10:41:50;;;;;;;;;;;;;;;0.68;88.76;100964.06;4976196;28;20045;-75
2021/12/23 10:44:28;;;;;;;46.80;17.92;;;;;;;0.72;88.44;100956.81;4980157;28;20392;-77
2021/12/23 10:46:54;;;;;;;43.28;20.05;;;;;;;0.71;87.83;100949.72;4979152;28;20402;-74
2021/12/23 10:49:31;;;;;;;40.08;17.58;;;;;;;0.76;88.21;100951.31;4990676;28;20026;-75
2021/12/23 10:52:07;;;;;;;42.60;18.35;;;;;;;0.84;88.28;100939.47;4987549;28;20034;-76
2021/12/23 11:00:25;;;;;;;40.55;17.05;;;;;;;1.02;87.78;100936.22;4980393;28;20029;-75
2021/12/23 11:03:05;;;;;;;46.05;18.33;;;;;;;1.07;88.81;100941.44;4983299;28;20065;-74
2021/12/23 11:05:37;;;;;;;41.17;18.38;;;;;;;1.10;88.05;100925.28;4985615;28;20065;-75
2021/12/23 11:08:22;;;;;;;41.50;17.13;;;;;;;1.16;88.28;100911.69;4986177;28;20432;-75
2021/12/23 11:38:28;;;;;;;37.53;15.73;;;;;;;1.77;87.19;100867.59;4977015;28;20057;-74
2021/12/23 11:40:57;;;;;;;41.13;18.70;;;;;;;1.89;86.73;100862.69;4985796;28;20023;-78
2021/12/23 11:45:52;;;;;;;43.10;18.02;;;;;;;2.02;86.44;100859.50;4982453;28;20042;-74
2021/12/23 11:48:18;;;;;;;36.00;15.75;;;;;;;2.09;86.69;100857.47;4987702;28;20030;-74
2021/12/23 11:51:05;;;;;;;45.88;17.63;;;;;;;2.16;85.92;100856.31;4988007;28;20548;-75
2021/12/23 11:53:31;;;;;;;40.38;17.15;;;;;;;2.24;86.07;100845.31;4986647;28;20561;-73
2021/12/23 11:55:57;;;;;;;39.90;15.95;;;;;;;2.29;85.86;100852.25;4987037;28;20030;-75
2021/12/23 11:58:25;;;;;;;41.33;18.88;;;;;;;2.35;85.63;100826.97;4988041;28;20030;-74
2021/12/23 12:01:09;;;;;;;39.35;16.48;;;;;;;2.40;86.33;100827.66;4982313;28;20073;-76
2021/12/23 12:03:55;;;;;;;47.47;17.20;;;;;;;2.47;86.24;100825.59;4984695;28;20030;-78
2021/12/23 12:06:26;;;;;;;38.40;17.33;;;;;;;2.55;86.32;100827.03;4974937;28;20042;-76
2021/12/23 12:08:54;;;;;;;37.08;17.48;;;;;;;2.65;86.48;100826.69;4982081;28;20033;-74
2021/12/23 12:11:23;;;;;;;38.30;16.13;;;;;;;2.74;85.62;100826.31;4985672;28;20105;-79
2021/12/23 12:13:49;;;;;;;35.70;16.35;;;;;;;2.77;86.06;100818.13;4986690;28;20027;-73
2021/12/23 12:16:36;;;;;;;37.60;16.30;;;;;;;2.87;85.73;100819.50;4984842;28;20044;-79